sensor_id;sensor_type;location;lat;lon;timestamp;P1;durP1;ratioP1;P2;durP2;ratioP2
26750;SDS011;14345;48.272;25.926;2023-11-22T00:01:38;79.57;;;46.58;;
26750;SDS011;14345;48.272;25.926;2023-11-22T00:04:04;77.80;;;47.45;;
26750;SDS011;14345;48.272;25.926;2023-11-22T00:06:30;66.68;;;42.40;;
26750;SDS011;14345;48.272;25.926;2023-11-22T00:08:56;74.85;;;44.60;;
26750;SDS011;14345;48.272;25.926;2023-11-22T00:11:22;73.57;;;45.53;;
26750;SDS011;14345;48.272;25.926;2023-11-22T00:13:49;67.05;;;42.85;;
26750;SDS011;14345;48.272;25.926;2023-11-22T00:16:20;67.07;;;42.03;;
26750;SDS011;14345;48.272;25.926;2023-11-22T00:18:46;67.82;;;42.45;;
26750;SDS011;14345;48.272;25.926;2023-11-22T00:21:12;63.33;;;40.33;;
26750;SDS011;14345;48.272;25.926;2023-11-22T00:23:38;59.53;;;37.72;;
26750;SDS011;14345;48.272;25.926;2023-11-22T00:26:04;57.80;;;36.85;;
26750;SDS011;14345;48.272;25.926;2023-11-22T00:28:31;61.00;;;37.75;;
26750;SDS011;14345;48.272;25.926;2023-11-22T00:30:57;63.85;;;37.85;;
26750;SDS011;14345;48.272;25.926;2023-11-22T00:33:23;62.22;;;37.30;;
26750;SDS011;14345;48.272;25.926;2023-11-22T00:35:50;55.25;;;33.17;;
26750;SDS011;14345;48.272;25.926;2023-11-22T00:38:18;50.22;;;32.13;;
26750;SDS011;14345;48.272;25.926;2023-11-22T00:40:44;47.40;;;28.27;;
26750;SDS011;14345;48.272;25.926;2023-11-22T00:43:10;37.42;;;24.98;;
26750;SDS011;14345;48.272;25.926;2023-11-22T00:45:36;36.38;;;23.05;;
26750;SDS011;14345;48.272;25.926;2023-11-22T00:48:02;35.92;;;22.20;;
26750;SDS011;14345;48.272;25.926;2023-11-22T00:50:28;28.67;;;19.50;;
26750;SDS011;14345;48.272;25.926;2023-11-22T00:52:54;24.67;;;17.08;;
26750;SDS011;14345;48.272;25.926;2023-11-22T00:55:21;25.85;;;17.08;;
26750;SDS011;14345;48.272;25.926;2023-11-22T00:57:53;24.13;;;16.05;;
26750;SDS011;14345;48.272;25.926;2023-11-22T01:00:21;26.52;;;16.77;;
26750;SDS011;14345;48.272;25.926;2023-11-22T01:02:49;24.95;;;16.48;;
26750;SDS011;14345;48.272;25.926;2023-11-22T01:05:16;26.10;;;17.92;;
26750;SDS011;14345;48.272;25.926;2023-11-22T01:07:42;34.78;;;23.42;;
26750;SDS011;14345;48.272;25.926;2023-11-22T01:10:08;35.15;;;24.08;;
26750;SDS011;14345;48.272;25.926;2023-11-22T01:12:35;34.60;;;23.85;;
26750;SDS011;14345;48.272;25.926;2023-11-22T01:15:02;42.88;;;28.58;;
26750;SDS011;14345;48.272;25.926;2023-11-22T01:17:31;41.67;;;28.90;;
26750;SDS011;14345;48.272;25.926;2023-11-22T01:19:57;37.80;;;25.80;;
26750;SDS011;14345;48.272;25.926;2023-11-22T01:22:26;34.85;;;24.27;;
26750;SDS011;14345;48.272;25.926;2023-11-22T01:24:53;34.83;;;23.85;;
26750;SDS011;14345;48.272;25.926;2023-11-22T01:27:19;33.95;;;22.65;;
26750;SDS011;14345;48.272;25.926;2023-11-22T01:29:45;29.50;;;20.75;;
26750;SDS011;14345;48.272;25.926;2023-11-22T01:32:12;27.65;;;19.13;;
26750;SDS011;14345;48.272;25.926;2023-11-22T01:34:38;24.83;;;17.35;;
26750;SDS011;14345;48.272;25.926;2023-11-22T01:37:04;21.00;;;15.15;;
26750;SDS011;14345;48.272;25.926;2023-11-22T01:39:30;24.27;;;16.45;;
26750;SDS011;14345;48.272;25.926;2023-11-22T01:41:56;21.80;;;15.05;;
26750;SDS011;14345;48.272;25.926;2023-11-22T01:44:23;18.20;;;12.65;;
26750;SDS011;14345;48.272;25.926;2023-11-22T01:46:49;17.73;;;11.48;;
26750;SDS011;14345;48.272;25.926;2023-11-22T01:49:15;15.15;;;10.88;;
26750;SDS011;14345;48.272;25.926;2023-11-22T01:51:41;14.30;;;9.38;;
26750;SDS011;14345;48.272;25.926;2023-11-22T01:54:08;9.32;;;6.82;;
26750;SDS011;14345;48.272;25.926;2023-11-22T01:56:35;8.38;;;5.45;;
26750;SDS011;14345;48.272;25.926;2023-11-22T01:59:04;7.05;;;4.30;;
26750;SDS011;14345;48.272;25.926;2023-11-22T02:01:30;7.32;;;3.90;;
26750;SDS011;14345;48.272;25.926;2023-11-22T02:03:56;4.97;;;3.42;;
26750;SDS011;14345;48.272;25.926;2023-11-22T02:06:23;4.18;;;3.20;;
26750;SDS011;14345;48.272;25.926;2023-11-22T02:08:49;4.80;;;3.13;;
26750;SDS011;14345;48.272;25.926;2023-11-22T02:11:19;6.22;;;2.97;;
26750;SDS011;14345;48.272;25.926;2023-11-22T02:13:47;6.07;;;3.40;;
26750;SDS011;14345;48.272;25.926;2023-11-22T02:16:17;5.65;;;3.40;;
26750;SDS011;14345;48.272;25.926;2023-11-22T02:18:47;4.75;;;3.20;;
26750;SDS011;14345;48.272;25.926;2023-11-22T02:21:15;5.05;;;3.40;;
26750;SDS011;14345;48.272;25.926;2023-11-22T02:23:42;5.32;;;3.10;;
26750;SDS011;14345;48.272;25.926;2023-11-22T02:26:08;6.30;;;3.90;;
26750;SDS011;14345;48.272;25.926;2023-11-22T02:28:34;6.78;;;4.40;;
26750;SDS011;14345;48.272;25.926;2023-11-22T02:31:00;6.40;;;4.30;;
26750;SDS011;14345;48.272;25.926;2023-11-22T02:33:26;6.97;;;4.35;;
26750;SDS011;14345;48.272;25.926;2023-11-22T02:35:52;8.13;;;4.03;;
26750;SDS011;14345;48.272;25.926;2023-11-22T02:38:19;5.43;;;3.88;;
26750;SDS011;14345;48.272;25.926;2023-11-22T02:40:45;7.95;;;4.20;;
26750;SDS011;14345;48.272;25.926;2023-11-22T02:43:11;4.72;;;3.38;;
26750;SDS011;14345;48.272;25.926;2023-11-22T02:45:37;7.95;;;4.70;;
26750;SDS011;14345;48.272;25.926;2023-11-22T02:48:04;9.50;;;5.43;;
26750;SDS011;14345;48.272;25.926;2023-11-22T02:50:34;9.48;;;5.47;;
26750;SDS011;14345;48.272;25.926;2023-11-22T02:53:00;9.80;;;5.43;;
26750;SDS011;14345;48.272;25.926;2023-11-22T02:55:27;13.85;;;6.35;;
26750;SDS011;14345;48.272;25.926;2023-11-22T02:57:53;11.27;;;5.75;;
26750;SDS011;14345;48.272;25.926;2023-11-22T03:00:20;10.35;;;5.63;;
26750;SDS011;14345;48.272;25.926;2023-11-22T03:02:46;8.50;;;5.45;;
26750;SDS011;14345;48.272;25.926;2023-11-22T03:05:15;6.90;;;5.03;;
26750;SDS011;14345;48.272;25.926;2023-11-22T03:07:41;9.98;;;6.93;;
26750;SDS011;14345;48.272;25.926;2023-11-22T03:10:08;15.05;;;9.40;;
26750;SDS011;14345;48.272;25.926;2023-11-22T03:12:34;13.02;;;9.05;;
26750;SDS011;14345;48.272;25.926;2023-11-22T03:15:00;12.82;;;8.15;;
26750;SDS011;14345;48.272;25.926;2023-11-22T03:17:27;11.63;;;7.22;;
26750;SDS011;14345;48.272;25.926;2023-11-22T03:19:54;10.82;;;6.15;;
26750;SDS011;14345;48.272;25.926;2023-11-22T03:22:22;8.70;;;6.07;;
26750;SDS011;14345;48.272;25.926;2023-11-22T03:24:49;8.52;;;6.18;;
26750;SDS011;14345;48.272;25.926;2023-11-22T03:27:15;9.32;;;5.68;;
26750;SDS011;14345;48.272;25.926;2023-11-22T03:29:41;8.48;;;5.60;;
26750;SDS011;14345;48.272;25.926;2023-11-22T03:32:07;9.35;;;5.32;;
26750;SDS011;14345;48.272;25.926;2023-11-22T03:34:33;7.78;;;5.50;;
26750;SDS011;14345;48.272;25.926;2023-11-22T03:36:59;9.30;;;6.13;;
26750;SDS011;14345;48.272;25.926;2023-11-22T03:39:25;9.57;;;6.68;;
26750;SDS011;14345;48.272;25.926;2023-11-22T03:41:51;9.43;;;6.53;;
26750;SDS011;14345;48.272;25.926;2023-11-22T03:44:17;8.65;;;6.28;;
26750;SDS011;14345;48.272;25.926;2023-11-22T03:46:44;10.25;;;6.68;;
26750;SDS011;14345;48.272;25.926;2023-11-22T03:49:10;10.35;;;8.20;;
26750;SDS011;14345;48.272;25.926;2023-11-22T03:51:36;11.48;;;8.70;;
26750;SDS011;14345;48.272;25.926;2023-11-22T03:54:02;9.63;;;8.07;;
26750;SDS011;14345;48.272;25.926;2023-11-22T03:56:28;8.90;;;6.50;;
26750;SDS011;14345;48.272;25.926;2023-11-22T03:58:55;7.60;;;6.03;;
26750;SDS011;14345;48.272;25.926;2023-11-22T04:01:21;10.27;;;7.47;;
26750;SDS011;14345;48.272;25.926;2023-11-22T04:03:47;10.45;;;7.75;;
26750;SDS011;14345;48.272;25.926;2023-11-22T04:06:14;9.15;;;6.40;;
26750;SDS011;14345;48.272;25.926;2023-11-22T04:08:41;11.07;;;6.55;;
26750;SDS011;14345;48.272;25.926;2023-11-22T04:11:08;9.40;;;6.32;;
26750;SDS011;14345;48.272;25.926;2023-11-22T04:13:35;8.45;;;5.65;;
26750;SDS011;14345;48.272;25.926;2023-11-22T04:16:01;8.25;;;5.82;;
26750;SDS011;14345;48.272;25.926;2023-11-22T04:18:27;6.75;;;5.07;;
26750;SDS011;14345;48.272;25.926;2023-11-22T04:20:53;6.78;;;5.68;;
26750;SDS011;14345;48.272;25.926;2023-11-22T04:23:20;6.45;;;5.15;;
26750;SDS011;14345;48.272;25.926;2023-11-22T04:25:46;5.85;;;4.65;;
26750;SDS011;14345;48.272;25.926;2023-11-22T04:28:14;5.90;;;4.80;;
26750;SDS011;14345;48.272;25.926;2023-11-22T04:30:40;5.53;;;4.60;;
26750;SDS011;14345;48.272;25.926;2023-11-22T04:33:07;5.97;;;5.28;;
26750;SDS011;14345;48.272;25.926;2023-11-22T04:35:33;6.97;;;5.85;;
26750;SDS011;14345;48.272;25.926;2023-11-22T04:38:02;6.88;;;5.35;;
26750;SDS011;14345;48.272;25.926;2023-11-22T04:40:29;9.25;;;6.22;;
26750;SDS011;14345;48.272;25.926;2023-11-22T04:42:55;9.23;;;6.95;;
26750;SDS011;14345;48.272;25.926;2023-11-22T04:45:21;8.55;;;6.88;;
26750;SDS011;14345;48.272;25.926;2023-11-22T04:47:47;9.32;;;6.70;;
26750;SDS011;14345;48.272;25.926;2023-11-22T04:50:13;7.93;;;6.18;;
26750;SDS011;14345;48.272;25.926;2023-11-22T04:52:39;9.65;;;6.72;;
26750;SDS011;14345;48.272;25.926;2023-11-22T04:55:06;9.38;;;6.45;;
26750;SDS011;14345;48.272;25.926;2023-11-22T04:57:32;9.38;;;6.75;;
26750;SDS011;14345;48.272;25.926;2023-11-22T04:59:59;8.52;;;6.47;;
26750;SDS011;14345;48.272;25.926;2023-11-22T05:02:25;8.88;;;6.38;;
26750;SDS011;14345;48.272;25.926;2023-11-22T05:04:52;5.90;;;4.97;;
26750;SDS011;14345;48.272;25.926;2023-11-22T05:07:18;6.70;;;5.55;;
26750;SDS011;14345;48.272;25.926;2023-11-22T05:09:44;7.32;;;5.70;;
26750;SDS011;14345;48.272;25.926;2023-11-22T05:12:10;9.07;;;6.18;;
26750;SDS011;14345;48.272;25.926;2023-11-22T05:14:37;8.95;;;7.03;;
26750;SDS011;14345;48.272;25.926;2023-11-22T05:17:03;7.57;;;5.72;;
26750;SDS011;14345;48.272;25.926;2023-11-22T05:19:30;9.32;;;6.75;;
26750;SDS011;14345;48.272;25.926;2023-11-22T05:21:56;7.95;;;6.20;;
26750;SDS011;14345;48.272;25.926;2023-11-22T05:24:23;7.10;;;6.18;;
26750;SDS011;14345;48.272;25.926;2023-11-22T05:26:49;7.35;;;6.10;;
26750;SDS011;14345;48.272;25.926;2023-11-22T05:29:15;8.20;;;6.28;;
26750;SDS011;14345;48.272;25.926;2023-11-22T05:31:41;8.90;;;7.10;;
26750;SDS011;14345;48.272;25.926;2023-11-22T05:34:07;7.45;;;5.93;;
26750;SDS011;14345;48.272;25.926;2023-11-22T05:36:33;8.25;;;5.85;;
26750;SDS011;14345;48.272;25.926;2023-11-22T05:38:59;8.45;;;6.30;;
26750;SDS011;14345;48.272;25.926;2023-11-22T05:41:26;9.27;;;6.85;;
26750;SDS011;14345;48.272;25.926;2023-11-22T05:43:52;8.10;;;5.97;;
26750;SDS011;14345;48.272;25.926;2023-11-22T05:46:19;8.02;;;6.18;;
26750;SDS011;14345;48.272;25.926;2023-11-22T05:48:49;8.85;;;6.20;;
26750;SDS011;14345;48.272;25.926;2023-11-22T05:51:16;6.80;;;5.72;;
26750;SDS011;14345;48.272;25.926;2023-11-22T05:53:42;8.15;;;6.68;;
26750;SDS011;14345;48.272;25.926;2023-11-22T05:56:08;9.43;;;6.80;;
26750;SDS011;14345;48.272;25.926;2023-11-22T05:58:35;8.25;;;6.43;;
26750;SDS011;14345;48.272;25.926;2023-11-22T06:01:07;8.23;;;6.68;;
26750;SDS011;14345;48.272;25.926;2023-11-22T06:03:36;10.45;;;6.68;;
26750;SDS011;14345;48.272;25.926;2023-11-22T06:06:03;9.05;;;7.20;;
26750;SDS011;14345;48.272;25.926;2023-11-22T06:08:29;7.82;;;6.30;;
26750;SDS011;14345;48.272;25.926;2023-11-22T06:10:56;8.05;;;6.10;;
26750;SDS011;14345;48.272;25.926;2023-11-22T06:13:23;8.23;;;6.55;;
26750;SDS011;14345;48.272;25.926;2023-11-22T06:15:49;12.05;;;8.35;;
26750;SDS011;14345;48.272;25.926;2023-11-22T06:18:15;10.10;;;7.55;;
26750;SDS011;14345;48.272;25.926;2023-11-22T06:20:41;10.48;;;7.90;;
26750;SDS011;14345;48.272;25.926;2023-11-22T06:23:08;12.05;;;7.55;;
26750;SDS011;14345;48.272;25.926;2023-11-22T06:25:34;9.90;;;7.35;;
26750;SDS011;14345;48.272;25.926;2023-11-22T06:28:06;8.48;;;7.15;;
26750;SDS011;14345;48.272;25.926;2023-11-22T06:30:33;9.57;;;7.13;;
26750;SDS011;14345;48.272;25.926;2023-11-22T06:33:00;10.15;;;7.30;;
26750;SDS011;14345;48.272;25.926;2023-11-22T06:35:27;9.63;;;7.15;;
26750;SDS011;14345;48.272;25.926;2023-11-22T06:37:53;10.77;;;7.88;;
26750;SDS011;14345;48.272;25.926;2023-11-22T06:40:19;11.70;;;8.63;;
26750;SDS011;14345;48.272;25.926;2023-11-22T06:42:45;12.43;;;8.90;;
26750;SDS011;14345;48.272;25.926;2023-11-22T06:45:12;15.60;;;10.32;;
26750;SDS011;14345;48.272;25.926;2023-11-22T06:47:41;14.48;;;10.38;;
26750;SDS011;14345;48.272;25.926;2023-11-22T06:50:08;14.20;;;10.23;;
26750;SDS011;14345;48.272;25.926;2023-11-22T06:52:35;12.65;;;9.10;;
26750;SDS011;14345;48.272;25.926;2023-11-22T06:55:03;12.80;;;9.02;;
26750;SDS011;14345;48.272;25.926;2023-11-22T06:57:29;12.90;;;9.70;;
26750;SDS011;14345;48.272;25.926;2023-11-22T06:59:56;15.02;;;10.65;;
26750;SDS011;14345;48.272;25.926;2023-11-22T07:02:22;14.32;;;10.85;;
26750;SDS011;14345;48.272;25.926;2023-11-22T07:04:48;16.35;;;9.68;;
26750;SDS011;14345;48.272;25.926;2023-11-22T07:07:14;15.73;;;11.60;;
26750;SDS011;14345;48.272;25.926;2023-11-22T07:09:43;13.52;;;9.95;;
26750;SDS011;14345;48.272;25.926;2023-11-22T07:12:10;14.38;;;10.77;;
26750;SDS011;14345;48.272;25.926;2023-11-22T07:14:36;15.60;;;11.40;;
26750;SDS011;14345;48.272;25.926;2023-11-22T07:17:02;13.40;;;10.35;;
26750;SDS011;14345;48.272;25.926;2023-11-22T07:19:32;15.52;;;11.05;;
26750;SDS011;14345;48.272;25.926;2023-11-22T07:22:03;15.82;;;11.52;;
26750;SDS011;14345;48.272;25.926;2023-11-22T07:24:29;15.88;;;11.05;;
26750;SDS011;14345;48.272;25.926;2023-11-22T07:26:59;15.02;;;10.77;;
26750;SDS011;14345;48.272;25.926;2023-11-22T07:29:26;15.02;;;11.23;;
26750;SDS011;14345;48.272;25.926;2023-11-22T07:31:54;14.45;;;10.60;;
26750;SDS011;14345;48.272;25.926;2023-11-22T07:34:21;13.77;;;10.40;;
26750;SDS011;14345;48.272;25.926;2023-11-22T07:36:48;13.77;;;10.23;;
26750;SDS011;14345;48.272;25.926;2023-11-22T07:39:15;14.57;;;10.93;;
26750;SDS011;14345;48.272;25.926;2023-11-22T07:41:44;12.85;;;9.77;;
26750;SDS011;14345;48.272;25.926;2023-11-22T07:44:14;12.10;;;9.13;;
26750;SDS011;14345;48.272;25.926;2023-11-22T07:46:41;11.07;;;9.23;;
26750;SDS011;14345;48.272;25.926;2023-11-22T07:49:09;11.73;;;8.68;;
26750;SDS011;14345;48.272;25.926;2023-11-22T07:51:35;12.30;;;9.57;;
26750;SDS011;14345;48.272;25.926;2023-11-22T07:54:02;10.63;;;8.88;;
26750;SDS011;14345;48.272;25.926;2023-11-22T07:56:28;14.60;;;10.45;;
26750;SDS011;14345;48.272;25.926;2023-11-22T07:58:57;12.50;;;9.27;;
26750;SDS011;14345;48.272;25.926;2023-11-22T08:01:23;12.68;;;9.60;;
26750;SDS011;14345;48.272;25.926;2023-11-22T08:03:50;13.48;;;10.10;;
26750;SDS011;14345;48.272;25.926;2023-11-22T08:06:17;12.82;;;9.75;;
26750;SDS011;14345;48.272;25.926;2023-11-22T08:08:43;13.18;;;9.60;;
26750;SDS011;14345;48.272;25.926;2023-11-22T08:11:11;13.48;;;10.40;;
26750;SDS011;14345;48.272;25.926;2023-11-22T08:13:40;15.57;;;11.60;;
26750;SDS011;14345;48.272;25.926;2023-11-22T08:16:10;17.77;;;12.45;;
26750;SDS011;14345;48.272;25.926;2023-11-22T08:18:40;27.88;;;19.40;;
26750;SDS011;14345;48.272;25.926;2023-11-22T08:21:08;21.88;;;15.70;;
26750;SDS011;14345;48.272;25.926;2023-11-22T08:23:34;19.63;;;14.52;;
26750;SDS011;14345;48.272;25.926;2023-11-22T08:26:00;20.58;;;14.02;;
26750;SDS011;14345;48.272;25.926;2023-11-22T08:28:27;18.45;;;13.30;;
26750;SDS011;14345;48.272;25.926;2023-11-22T08:30:54;16.75;;;12.15;;
26750;SDS011;14345;48.272;25.926;2023-11-22T08:33:21;15.07;;;12.02;;
26750;SDS011;14345;48.272;25.926;2023-11-22T08:35:47;17.38;;;12.60;;
26750;SDS011;14345;48.272;25.926;2023-11-22T08:38:17;18.23;;;12.88;;
26750;SDS011;14345;48.272;25.926;2023-11-22T08:40:44;18.92;;;13.60;;
26750;SDS011;14345;48.272;25.926;2023-11-22T08:43:11;18.27;;;13.38;;
26750;SDS011;14345;48.272;25.926;2023-11-22T08:45:37;19.23;;;12.48;;
26750;SDS011;14345;48.272;25.926;2023-11-22T08:48:03;19.33;;;14.18;;
26750;SDS011;14345;48.272;25.926;2023-11-22T08:50:29;19.27;;;12.85;;
26750;SDS011;14345;48.272;25.926;2023-11-22T08:52:55;20.50;;;14.07;;
26750;SDS011;14345;48.272;25.926;2023-11-22T08:55:23;20.02;;;14.55;;
26750;SDS011;14345;48.272;25.926;2023-11-22T08:57:50;19.05;;;13.32;;
26750;SDS011;14345;48.272;25.926;2023-11-22T09:00:16;22.77;;;15.40;;
26750;SDS011;14345;48.272;25.926;2023-11-22T09:02:50;19.85;;;14.35;;
26750;SDS011;14345;48.272;25.926;2023-11-22T09:05:17;21.15;;;15.25;;
26750;SDS011;14345;48.272;25.926;2023-11-22T09:07:44;20.88;;;14.20;;
26750;SDS011;14345;48.272;25.926;2023-11-22T09:10:10;20.85;;;13.25;;
26750;SDS011;14345;48.272;25.926;2023-11-22T09:12:41;17.15;;;12.80;;
26750;SDS011;14345;48.272;25.926;2023-11-22T09:15:10;17.42;;;13.27;;
26750;SDS011;14345;48.272;25.926;2023-11-22T09:17:38;16.45;;;12.63;;
26750;SDS011;14345;48.272;25.926;2023-11-22T09:20:13;18.67;;;13.63;;
26750;SDS011;14345;48.272;25.926;2023-11-22T09:22:43;16.98;;;12.75;;
26750;SDS011;14345;48.272;25.926;2023-11-22T09:25:19;17.83;;;12.80;;
26750;SDS011;14345;48.272;25.926;2023-11-22T09:27:47;20.45;;;14.95;;
26750;SDS011;14345;48.272;25.926;2023-11-22T09:30:18;18.92;;;14.00;;
26750;SDS011;14345;48.272;25.926;2023-11-22T09:33:18;19.63;;;14.60;;
26750;SDS011;14345;48.272;25.926;2023-11-22T09:35:44;20.40;;;14.10;;
26750;SDS011;14345;48.272;25.926;2023-11-22T09:38:12;18.70;;;14.00;;
26750;SDS011;14345;48.272;25.926;2023-11-22T09:40:45;17.83;;;12.75;;
26750;SDS011;14345;48.272;25.926;2023-11-22T09:43:11;20.75;;;13.98;;
26750;SDS011;14345;48.272;25.926;2023-11-22T09:45:40;18.15;;;13.23;;
26750;SDS011;14345;48.272;25.926;2023-11-22T09:48:12;19.80;;;13.98;;
26750;SDS011;14345;48.272;25.926;2023-11-22T09:50:43;19.88;;;14.60;;
26750;SDS011;14345;48.272;25.926;2023-11-22T09:53:24;17.92;;;14.00;;
26750;SDS011;14345;48.272;25.926;2023-11-22T09:55:51;19.17;;;14.82;;
26750;SDS011;14345;48.272;25.926;2023-11-22T09:58:17;19.27;;;14.05;;
26750;SDS011;14345;48.272;25.926;2023-11-22T10:00:46;18.98;;;14.00;;
26750;SDS011;14345;48.272;25.926;2023-11-22T10:03:12;18.20;;;13.18;;
26750;SDS011;14345;48.272;25.926;2023-11-22T10:05:41;19.48;;;14.80;;
26750;SDS011;14345;48.272;25.926;2023-11-22T10:08:07;19.13;;;13.73;;
26750;SDS011;14345;48.272;25.926;2023-11-22T10:10:34;21.50;;;14.70;;
26750;SDS011;14345;48.272;25.926;2023-11-22T10:13:02;21.73;;;14.98;;
26750;SDS011;14345;48.272;25.926;2023-11-22T10:15:28;19.30;;;14.60;;
26750;SDS011;14345;48.272;25.926;2023-11-22T10:20:22;22.15;;;16.00;;
26750;SDS011;14345;48.272;25.926;2023-11-22T10:22:48;23.02;;;15.38;;
26750;SDS011;14345;48.272;25.926;2023-11-22T10:25:14;22.23;;;15.90;;
26750;SDS011;14345;48.272;25.926;2023-11-22T10:27:44;22.65;;;16.10;;
26750;SDS011;14345;48.272;25.926;2023-11-22T10:30:10;25.65;;;17.50;;
26750;SDS011;14345;48.272;25.926;2023-11-22T10:32:37;21.73;;;15.30;;
26750;SDS011;14345;48.272;25.926;2023-11-22T10:35:06;25.15;;;16.80;;
26750;SDS011;14345;48.272;25.926;2023-11-22T10:37:35;22.98;;;16.05;;
26750;SDS011;14345;48.272;25.926;2023-11-22T10:40:02;21.95;;;15.90;;
26750;SDS011;14345;48.272;25.926;2023-11-22T10:42:30;20.58;;;14.93;;
26750;SDS011;14345;48.272;25.926;2023-11-22T10:44:56;17.00;;;13.80;;
26750;SDS011;14345;48.272;25.926;2023-11-22T10:47:22;19.35;;;14.13;;
26750;SDS011;14345;48.272;25.926;2023-11-22T10:49:49;18.30;;;13.43;;
26750;SDS011;14345;48.272;25.926;2023-11-22T10:52:16;20.33;;;14.30;;
26750;SDS011;14345;48.272;25.926;2023-11-22T10:54:44;21.23;;;14.35;;
26750;SDS011;14345;48.272;25.926;2023-11-22T10:57:10;22.50;;;15.05;;
26750;SDS011;14345;48.272;25.926;2023-11-22T10:59:37;21.40;;;14.68;;
26750;SDS011;14345;48.272;25.926;2023-11-22T11:02:08;21.08;;;15.10;;
26750;SDS011;14345;48.272;25.926;2023-11-22T11:04:46;21.88;;;14.95;;
26750;SDS011;14345;48.272;25.926;2023-11-22T11:07:13;20.48;;;14.57;;
26750;SDS011;14345;48.272;25.926;2023-11-22T11:09:40;21.45;;;15.02;;
26750;SDS011;14345;48.272;25.926;2023-11-22T11:12:07;23.52;;;14.88;;
26750;SDS011;14345;48.272;25.926;2023-11-22T11:14:33;21.92;;;15.15;;
26750;SDS011;14345;48.272;25.926;2023-11-22T11:16:59;21.00;;;15.23;;
26750;SDS011;14345;48.272;25.926;2023-11-22T11:19:26;23.23;;;14.90;;
26750;SDS011;14345;48.272;25.926;2023-11-22T11:21:54;19.45;;;14.30;;
26750;SDS011;14345;48.272;25.926;2023-11-22T11:24:22;17.98;;;13.48;;
26750;SDS011;14345;48.272;25.926;2023-11-22T11:26:48;18.02;;;13.13;;
26750;SDS011;14345;48.272;25.926;2023-11-22T11:29:30;18.67;;;13.60;;
26750;SDS011;14345;48.272;25.926;2023-11-22T11:31:56;18.60;;;13.40;;
26750;SDS011;14345;48.272;25.926;2023-11-22T11:34:23;16.88;;;12.68;;
26750;SDS011;14345;48.272;25.926;2023-11-22T11:36:52;18.58;;;13.13;;
26750;SDS011;14345;48.272;25.926;2023-11-22T11:39:25;15.45;;;11.82;;
26750;SDS011;14345;48.272;25.926;2023-11-22T11:42:08;16.38;;;12.75;;
26750;SDS011;14345;48.272;25.926;2023-11-22T11:44:35;16.25;;;12.10;;
26750;SDS011;14345;48.272;25.926;2023-11-22T11:47:08;16.70;;;12.07;;
26750;SDS011;14345;48.272;25.926;2023-11-22T11:49:36;16.98;;;12.77;;
26750;SDS011;14345;48.272;25.926;2023-11-22T11:52:04;18.27;;;13.18;;
26750;SDS011;14345;48.272;25.926;2023-11-22T11:54:30;16.98;;;12.77;;
26750;SDS011;14345;48.272;25.926;2023-11-22T11:56:59;14.95;;;11.20;;
26750;SDS011;14345;48.272;25.926;2023-11-22T11:59:26;14.77;;;10.90;;
26750;SDS011;14345;48.272;25.926;2023-11-22T12:01:52;15.45;;;12.77;;
26750;SDS011;14345;48.272;25.926;2023-11-22T12:04:22;17.20;;;12.95;;
26750;SDS011;14345;48.272;25.926;2023-11-22T12:06:48;19.08;;;13.32;;
26750;SDS011;14345;48.272;25.926;2023-11-22T12:09:21;18.17;;;13.45;;
26750;SDS011;14345;48.272;25.926;2023-11-22T12:11:49;18.27;;;13.32;;
26750;SDS011;14345;48.272;25.926;2023-11-22T12:14:15;20.80;;;14.63;;
26750;SDS011;14345;48.272;25.926;2023-11-22T12:16:42;19.55;;;14.27;;
26750;SDS011;14345;48.272;25.926;2023-11-22T12:19:15;17.17;;;12.98;;
26750;SDS011;14345;48.272;25.926;2023-11-22T12:24:12;20.65;;;14.55;;
26750;SDS011;14345;48.272;25.926;2023-11-22T12:26:40;20.40;;;13.45;;
26750;SDS011;14345;48.272;25.926;2023-11-22T12:29:06;18.52;;;13.18;;
26750;SDS011;14345;48.272;25.926;2023-11-22T12:31:34;19.88;;;14.02;;
26750;SDS011;14345;48.272;25.926;2023-11-22T12:34:00;17.25;;;13.15;;
26750;SDS011;14345;48.272;25.926;2023-11-22T12:36:27;16.02;;;12.60;;
26750;SDS011;14345;48.272;25.926;2023-11-22T12:38:54;16.67;;;12.40;;
26750;SDS011;14345;48.272;25.926;2023-11-22T12:41:23;17.85;;;13.05;;
26750;SDS011;14345;48.272;25.926;2023-11-22T12:44:07;16.08;;;11.73;;
26750;SDS011;14345;48.272;25.926;2023-11-22T12:49:20;20.13;;;13.13;;
26750;SDS011;14345;48.272;25.926;2023-11-22T12:51:50;17.92;;;12.80;;
26750;SDS011;14345;48.272;25.926;2023-11-22T12:54:17;17.35;;;12.93;;
26750;SDS011;14345;48.272;25.926;2023-11-22T12:56:46;18.83;;;13.10;;
26750;SDS011;14345;48.272;25.926;2023-11-22T12:59:14;17.27;;;12.45;;
26750;SDS011;14345;48.272;25.926;2023-11-22T13:01:40;17.52;;;12.50;;
26750;SDS011;14345;48.272;25.926;2023-11-22T13:04:06;18.63;;;12.63;;
26750;SDS011;14345;48.272;25.926;2023-11-22T13:06:33;14.93;;;11.57;;
26750;SDS011;14345;48.272;25.926;2023-11-22T13:08:59;17.95;;;11.88;;
26750;SDS011;14345;48.272;25.926;2023-11-22T13:11:25;15.13;;;10.90;;
26750;SDS011;14345;48.272;25.926;2023-11-22T13:13:51;14.13;;;10.75;;
26750;SDS011;14345;48.272;25.926;2023-11-22T13:16:17;14.93;;;11.60;;
26750;SDS011;14345;48.272;25.926;2023-11-22T13:18:44;16.35;;;11.38;;
26750;SDS011;14345;48.272;25.926;2023-11-22T13:21:10;14.55;;;10.90;;
26750;SDS011;14345;48.272;25.926;2023-11-22T13:23:36;14.13;;;10.57;;
26750;SDS011;14345;48.272;25.926;2023-11-22T13:26:02;14.48;;;11.25;;
26750;SDS011;14345;48.272;25.926;2023-11-22T13:28:30;16.23;;;11.27;;
26750;SDS011;14345;48.272;25.926;2023-11-22T13:30:56;17.00;;;12.15;;
26750;SDS011;14345;48.272;25.926;2023-11-22T13:33:22;14.85;;;11.32;;
26750;SDS011;14345;48.272;25.926;2023-11-22T13:35:49;15.52;;;11.65;;
26750;SDS011;14345;48.272;25.926;2023-11-22T13:38:16;15.05;;;11.48;;
26750;SDS011;14345;48.272;25.926;2023-11-22T13:40:42;10.80;;;8.65;;
26750;SDS011;14345;48.272;25.926;2023-11-22T13:43:11;18.63;;;12.35;;
26750;SDS011;14345;48.272;25.926;2023-11-22T13:45:38;16.10;;;11.65;;
26750;SDS011;14345;48.272;25.926;2023-11-22T13:48:06;18.98;;;11.65;;
26750;SDS011;14345;48.272;25.926;2023-11-22T13:50:34;18.58;;;12.90;;
26750;SDS011;14345;48.272;25.926;2023-11-22T13:53:01;19.48;;;12.80;;
26750;SDS011;14345;48.272;25.926;2023-11-22T13:55:28;17.83;;;12.27;;
26750;SDS011;14345;48.272;25.926;2023-11-22T13:57:55;18.60;;;13.85;;
26750;SDS011;14345;48.272;25.926;2023-11-22T14:00:22;18.02;;;13.32;;
26750;SDS011;14345;48.272;25.926;2023-11-22T14:02:50;15.45;;;12.70;;
26750;SDS011;14345;48.272;25.926;2023-11-22T14:05:22;17.73;;;12.80;;
26750;SDS011;14345;48.272;25.926;2023-11-22T14:07:49;17.45;;;12.68;;
26750;SDS011;14345;48.272;25.926;2023-11-22T14:10:16;17.05;;;12.57;;
26750;SDS011;14345;48.272;25.926;2023-11-22T14:12:43;20.05;;;14.85;;
26750;SDS011;14345;48.272;25.926;2023-11-22T14:15:09;18.70;;;14.20;;
26750;SDS011;14345;48.272;25.926;2023-11-22T14:17:36;20.15;;;15.32;;
26750;SDS011;14345;48.272;25.926;2023-11-22T14:20:07;20.05;;;14.82;;
26750;SDS011;14345;48.272;25.926;2023-11-22T14:22:36;19.25;;;13.85;;
26750;SDS011;14345;48.272;25.926;2023-11-22T14:25:04;20.05;;;15.00;;